sensor_id;sensor_type;location;lat;lon;timestamp;pressure;altitude;pressure_sealevel;temperature;humidity
82458;BME280;72081;48.870;11.074;2023-12-22T00:01:18;95745.19;;;2.74;91.97
82458;BME280;72081;48.870;11.074;2023-12-22T00:03:43;95725.50;;;2.77;91.17
82458;BME280;72081;48.870;11.074;2023-12-22T00:06:11;95744.19;;;2.75;90.33
82458;BME280;72081;48.870;11.074;2023-12-22T00:08:36;95748.41;;;2.76;91.26
82458;BME280;72081;48.870;11.074;2023-12-22T00:11:02;95746.22;;;2.73;90.64
82458;BME280;72081;48.870;11.074;2023-12-22T00:13:27;95764.81;;;2.78;91.97
82458;BME280;72081;48.870;11.074;2023-12-22T00:15:52;95764.59;;;2.80;92.03
82458;BME280;72081;48.870;11.074;2023-12-22T00:18:18;95749.59;;;2.80;91.63
82458;BME280;72081;48.870;11.074;2023-12-22T00:20:43;95746.38;;;2.78;92.26
82458;BME280;72081;48.870;11.074;2023-12-22T00:23:08;95758.50;;;2.79;91.55
82458;BME280;72081;48.870;11.074;2023-12-22T00:25:33;95761.16;;;2.79;91.97
82458;BME280;72081;48.870;11.074;2023-12-22T00:27:59;95744.41;;;2.73;92.37
82458;BME280;72081;48.870;11.074;2023-12-22T00:30:24;95748.41;;;2.76;92.81
82458;BME280;72081;48.870;11.074;2023-12-22T00:32:49;95741.19;;;2.71;92.56
82458;BME280;72081;48.870;11.074;2023-12-22T00:35:15;95748.69;;;2.68;92.36
82458;BME280;72081;48.870;11.074;2023-12-22T00:37:40;95751.53;;;2.66;92.35
82458;BME280;72081;48.870;11.074;2023-12-22T00:40:06;95754.38;;;2.65;92.44
82458;BME280;72081;48.870;11.074;2023-12-22T00:42:33;95772.38;;;2.68;92.32
82458;BME280;72081;48.870;11.074;2023-12-22T00:44:58;95779.09;;;2.64;92.38
82458;BME280;72081;48.870;11.074;2023-12-22T00:47:23;95783.34;;;2.65;93.13
82458;BME280;72081;48.870;11.074;2023-12-22T00:51:00;95771.00;;;2.65;93.27
82458;BME280;72081;48.870;11.074;2023-12-22T00:53:26;95771.41;;;2.62;92.18
82458;BME280;72081;48.870;11.074;2023-12-22T00:55:51;95780.56;;;2.60;92.70
82458;BME280;72081;48.870;11.074;2023-12-22T00:58:16;95785.25;;;2.58;93.06
82458;BME280;72081;48.870;11.074;2023-12-22T01:00:41;95780.41;;;2.55;92.35
82458;BME280;72081;48.870;11.074;2023-12-22T01:03:07;95770.47;;;2.57;93.12
82458;BME280;72081;48.870;11.074;2023-12-22T01:05:32;95770.47;;;2.57;92.49
82458;BME280;72081;48.870;11.074;2023-12-22T01:07:57;95752.63;;;2.59;92.80
82458;BME280;72081;48.870;11.074;2023-12-22T01:10:22;95739.31;;;2.54;92.47
82458;BME280;72081;48.870;11.074;2023-12-22T01:12:48;95750.84;;;2.53;91.87
82458;BME280;72081;48.870;11.074;2023-12-22T01:15:13;95749.25;;;2.52;91.30
82458;BME280;72081;48.870;11.074;2023-12-22T01:17:38;95742.16;;;2.52;92.05
82458;BME280;72081;48.870;11.074;2023-12-22T01:20:04;95756.72;;;2.55;92.05
82458;BME280;72081;48.870;11.074;2023-12-22T01:22:29;95765.19;;;2.57;92.93
82458;BME280;72081;48.870;11.074;2023-12-22T01:24:57;95767.25;;;2.55;93.29
82458;BME280;72081;48.870;11.074;2023-12-22T01:27:22;95774.16;;;2.49;91.50
82458;BME280;72081;48.870;11.074;2023-12-22T01:29:47;95766.88;;;2.51;92.64
82458;BME280;72081;48.870;11.074;2023-12-22T01:32:12;95761.22;;;2.48;91.81
82458;BME280;72081;48.870;11.074;2023-12-22T01:34:38;95767.28;;;2.48;92.86
82458;BME280;72081;48.870;11.074;2023-12-22T01:37:03;95766.47;;;2.48;93.29
82458;BME280;72081;48.870;11.074;2023-12-22T01:39:28;95797.47;;;2.46;92.47
82458;BME280;72081;48.870;11.074;2023-12-22T01:41:54;95788.78;;;2.45;92.88
82458;BME280;72081;48.870;11.074;2023-12-22T01:44:19;95788.41;;;2.41;93.09
82458;BME280;72081;48.870;11.074;2023-12-22T01:46:44;95786.19;;;2.38;92.79
82458;BME280;72081;48.870;11.074;2023-12-22T01:49:10;95786.19;;;2.38;92.76
82458;BME280;72081;48.870;11.074;2023-12-22T01:51:37;95799.78;;;2.35;93.60
82458;BME280;72081;48.870;11.074;2023-12-22T01:54:05;95799.59;;;2.30;93.00
82458;BME280;72081;48.870;11.074;2023-12-22T01:56:30;95802.44;;;2.29;94.10
82458;BME280;72081;48.870;11.074;2023-12-22T01:58:59;95786.72;;;2.22;93.67
82458;BME280;72081;48.870;11.074;2023-12-22T02:01:25;95783.72;;;2.19;93.32
82458;BME280;72081;48.870;11.074;2023-12-22T02:03:51;95784.94;;;2.16;93.84
82458;BME280;72081;48.870;11.074;2023-12-22T02:06:18;95786.78;;;2.16;94.37
82458;BME280;72081;48.870;11.074;2023-12-22T02:08:46;95789.41;;;2.09;94.43
82458;BME280;72081;48.870;11.074;2023-12-22T02:11:11;95784.63;;;1.99;94.13
82458;BME280;72081;48.870;11.074;2023-12-22T02:13:37;95772.72;;;1.97;94.81
82458;BME280;72081;48.870;11.074;2023-12-22T02:16:14;95770.09;;;1.97;95.01
82458;BME280;72081;48.870;11.074;2023-12-22T02:18:43;95775.94;;;1.99;94.75
82458;BME280;72081;48.870;11.074;2023-12-22T02:21:11;95769.28;;;1.96;94.45
82458;BME280;72081;48.870;11.074;2023-12-22T02:23:36;95765.88;;;1.89;94.96
82458;BME280;72081;48.870;11.074;2023-12-22T02:26:09;95767.25;;;1.92;94.76
82458;BME280;72081;48.870;11.074;2023-12-22T02:28:36;95782.28;;;1.85;94.67
82458;BME280;72081;48.870;11.074;2023-12-22T02:31:21;95782.66;;;1.88;95.17
82458;BME280;72081;48.870;11.074;2023-12-22T02:33:48;95771.09;;;1.96;94.99
82458;BME280;72081;48.870;11.074;2023-12-22T02:36:17;95756.50;;;2.00;95.08
82458;BME280;72081;48.870;11.074;2023-12-22T02:38:44;95752.84;;;2.01;94.21
82458;BME280;72081;48.870;11.074;2023-12-22T02:41:10;95750.00;;;2.02;94.07
82458;BME280;72081;48.870;11.074;2023-12-22T02:43:35;95740.50;;;2.01;95.63
82458;BME280;72081;48.870;11.074;2023-12-22T02:46:01;95741.97;;;1.97;94.24
82458;BME280;72081;48.870;11.074;2023-12-22T02:48:26;95736.91;;;1.96;94.41
82458;BME280;72081;48.870;11.074;2023-12-22T02:50:51;95739.91;;;1.99;94.95
82458;BME280;72081;48.870;11.074;2023-12-22T02:53:17;95747.81;;;1.99;94.79
82458;BME280;72081;48.870;11.074;2023-12-22T02:55:42;95733.63;;;2.00;95.20
82458;BME280;72081;48.870;11.074;2023-12-22T02:58:07;95728.38;;;2.00;94.81
82458;BME280;72081;48.870;11.074;2023-12-22T03:00:33;95731.38;;;2.04;95.46
82458;BME280;72081;48.870;11.074;2023-12-22T03:02:58;95728.16;;;2.02;94.86
82458;BME280;72081;48.870;11.074;2023-12-22T03:05:23;95733.28;;;1.90;95.03
82458;BME280;72081;48.870;11.074;2023-12-22T03:07:48;95735.69;;;1.98;95.34
82458;BME280;72081;48.870;11.074;2023-12-22T03:10:14;95739.94;;;1.93;93.82
82458;BME280;72081;48.870;11.074;2023-12-22T03:12:39;95752.84;;;2.01;94.59
82458;BME280;72081;48.870;11.074;2023-12-22T03:15:05;95749.97;;;2.09;95.06
82458;BME280;72081;48.870;11.074;2023-12-22T03:17:30;95740.44;;;2.08;94.73
82458;BME280;72081;48.870;11.074;2023-12-22T03:19:56;95753.66;;;2.01;94.45
82458;BME280;72081;48.870;11.074;2023-12-22T03:22:21;95747.75;;;2.06;95.31
82458;BME280;72081;48.870;11.074;2023-12-22T03:24:46;95740.44;;;2.08;95.33
82458;BME280;72081;48.870;11.074;2023-12-22T03:27:12;95743.69;;;2.10;94.98
82458;BME280;72081;48.870;11.074;2023-12-22T03:29:41;95740.03;;;2.11;95.29
82458;BME280;72081;48.870;11.074;2023-12-22T03:32:06;95740.03;;;2.11;95.60
82458;BME280;72081;48.870;11.074;2023-12-22T03:34:32;95732.34;;;2.09;95.57
82458;BME280;72081;48.870;11.074;2023-12-22T03:36:57;95719.41;;;2.08;95.71
82458;BME280;72081;48.870;11.074;2023-12-22T03:39:49;95725.47;;;2.08;95.39
82458;BME280;72081;48.870;11.074;2023-12-22T03:42:14;95722.63;;;2.10;95.62
82458;BME280;72081;48.870;11.074;2023-12-22T03:44:39;95731.31;;;2.10;96.08
82458;BME280;72081;48.870;11.074;2023-12-22T03:47:04;95728.06;;;2.15;96.11
82458;BME280;72081;48.870;11.074;2023-12-22T03:49:30;95725.22;;;2.17;95.82
82458;BME280;72081;48.870;11.074;2023-12-22T03:51:55;95732.09;;;2.18;96.10
82458;BME280;72081;48.870;11.074;2023-12-22T03:54:20;95735.09;;;2.21;96.15
82458;BME280;72081;48.870;11.074;2023-12-22T03:56:46;95729.41;;;2.24;96.20
82458;BME280;72081;48.870;11.074;2023-12-22T03:59:11;95734.88;;;2.23;96.35
82458;BME280;72081;48.870;11.074;2023-12-22T04:01:36;95737.97;;;2.20;95.90
82458;BME280;72081;48.870;11.074;2023-12-22T04:04:01;95743.22;;;2.20;96.22
82458;BME280;72081;48.870;11.074;2023-12-22T04:06:27;95748.91;;;2.17;95.69
82458;BME280;72081;48.870;11.074;2023-12-22T04:08:52;95745.63;;;2.21;95.58
82458;BME280;72081;48.870;11.074;2023-12-22T04:11:17;95753.09;;;2.24;96.20
82458;BME280;72081;48.870;11.074;2023-12-22T04:13:42;95759.97;;;2.25;95.93
82458;BME280;72081;48.870;11.074;2023-12-22T04:16:08;95769.69;;;2.25;96.61
82458;BME280;72081;48.870;11.074;2023-12-22T04:18:33;95772.69;;;2.28;96.87
82458;BME280;72081;48.870;11.074;2023-12-22T04:20:58;95771.34;;;2.19;96.52
82458;BME280;72081;48.870;11.074;2023-12-22T04:23:24;95772.44;;;2.05;96.27
82458;BME280;72081;48.870;11.074;2023-12-22T04:25:50;95784.47;;;1.94;96.03
82458;BME280;72081;48.870;11.074;2023-12-22T04:28:15;95794.19;;;1.94;95.95
82458;BME280;72081;48.870;11.074;2023-12-22T04:30:40;95799.25;;;1.95;96.42
82458;BME280;72081;48.870;11.074;2023-12-22T04:33:05;95791.34;;;1.95;96.31
82458;BME280;72081;48.870;11.074;2023-12-22T04:35:31;95791.13;;;1.97;95.42
82458;BME280;72081;48.870;11.074;2023-12-22T04:37:56;95791.72;;;1.99;95.57
82458;BME280;72081;48.870;11.074;2023-12-22T04:40:21;95790.91;;;1.98;95.38
82458;BME280;72081;48.870;11.074;2023-12-22T04:42:47;95795.38;;;1.91;94.85
82458;BME280;72081;48.870;11.074;2023-12-22T04:45:12;95788.94;;;1.94;95.72
82458;BME280;72081;48.870;11.074;2023-12-22T04:47:37;95801.47;;;1.92;95.84
82458;BME280;72081;48.870;11.074;2023-12-22T04:50:03;95791.56;;;1.87;96.75
82458;BME280;72081;48.870;11.074;2023-12-22T04:52:28;95811.81;;;1.87;96.28
82458;BME280;72081;48.870;11.074;2023-12-22T04:54:54;95795.00;;;1.88;96.53
82458;BME280;72081;48.870;11.074;2023-12-22T04:57:20;95804.94;;;1.86;96.29
82458;BME280;72081;48.870;11.074;2023-12-22T04:59:47;95804.34;;;1.83;96.48
82458;BME280;72081;48.870;11.074;2023-12-22T05:02:12;95801.34;;;1.80;96.02
82458;BME280;72081;48.870;11.074;2023-12-22T05:04:37;95818.72;;;1.81;96.57
82458;BME280;72081;48.870;11.074;2023-12-22T05:07:03;95806.16;;;1.83;96.72
82458;BME280;72081;48.870;11.074;2023-12-22T05:09:32;95806.16;;;1.83;96.33
82458;BME280;72081;48.870;11.074;2023-12-22T05:11:57;95802.53;;;1.84;96.36
82458;BME280;72081;48.870;11.074;2023-12-22T05:14:22;95800.88;;;1.90;96.38
82458;BME280;72081;48.870;11.074;2023-12-22T05:16:47;95804.31;;;1.90;96.24
82458;BME280;72081;48.870;11.074;2023-12-22T05:19:13;95806.34;;;1.88;96.71
82458;BME280;72081;48.870;11.074;2023-12-22T05:21:38;95805.91;;;1.91;96.88
82458;BME280;72081;48.870;11.074;2023-12-22T05:24:04;95807.94;;;1.89;96.94
82458;BME280;72081;48.870;11.074;2023-12-22T05:26:30;95808.59;;;1.85;97.35
82458;BME280;72081;48.870;11.074;2023-12-22T05:28:55;95810.63;;;1.82;97.83
82458;BME280;72081;48.870;11.074;2023-12-22T05:31:20;95804.72;;;1.87;98.08
82458;BME280;72081;48.870;11.074;2023-12-22T05:33:46;95776.97;;;1.98;98.38
82458;BME280;72081;48.870;11.074;2023-12-22T05:36:11;95807.09;;;2.02;97.38
82458;BME280;72081;48.870;11.074;2023-12-22T05:38:39;95805.63;;;2.06;97.21
82458;BME280;72081;48.870;11.074;2023-12-22T05:41:05;95778.59;;;2.24;96.13
82458;BME280;72081;48.870;11.074;2023-12-22T05:43:34;95807.09;;;2.33;95.92
82458;BME280;72081;48.870;11.074;2023-12-22T05:46:00;95780.88;;;2.45;95.23
82458;BME280;72081;48.870;11.074;2023-12-22T05:48:26;95770.31;;;2.52;94.91
82458;BME280;72081;48.870;11.074;2023-12-22T05:50:52;95798.63;;;2.56;94.88
82458;BME280;72081;48.870;11.074;2023-12-22T05:53:18;95809.09;;;2.63;94.30
82458;BME280;72081;48.870;11.074;2023-12-22T05:55:43;95788.41;;;2.66;93.76
82458;BME280;72081;48.870;11.074;2023-12-22T05:58:08;95793.66;;;2.66;93.30
82458;BME280;72081;48.870;11.074;2023-12-22T06:00:34;95801.97;;;2.70;93.51
82458;BME280;72081;48.870;11.074;2023-12-22T06:03:00;95802.56;;;2.72;93.81
82458;BME280;72081;48.870;11.074;2023-12-22T06:05:26;95809.00;;;2.76;92.82
82458;BME280;72081;48.870;11.074;2023-12-22T06:07:51;95801.91;;;2.77;93.82
82458;BME280;72081;48.870;11.074;2023-12-22T06:10:16;95805.78;;;2.74;94.19
82458;BME280;72081;48.870;11.074;2023-12-22T06:12:42;95814.47;;;2.74;93.64
82458;BME280;72081;48.870;11.074;2023-12-22T06:15:08;95815.28;;;2.75;94.35
82458;BME280;72081;48.870;11.074;2023-12-22T06:17:33;95811.25;;;2.72;93.37
82458;BME280;72081;48.870;11.074;2023-12-22T06:19:58;95808.19;;;2.76;93.38
82458;BME280;72081;48.870;11.074;2023-12-22T06:22:24;95810.59;;;2.77;93.99
82458;BME280;72081;48.870;11.074;2023-12-22T06:24:49;95818.13;;;2.73;94.75
82458;BME280;72081;48.870;11.074;2023-12-22T06:28:37;95822.00;;;2.71;94.27
82458;BME280;72081;48.870;11.074;2023-12-22T06:31:05;95831.94;;;2.69;95.58
82458;BME280;72081;48.870;11.074;2023-12-22T06:33:30;95840.25;;;2.66;95.61
82458;BME280;72081;48.870;11.074;2023-12-22T06:35:55;95843.69;;;2.66;95.28
82458;BME280;72081;48.870;11.074;2023-12-22T06:38:21;95835.22;;;2.64;95.79
82458;BME280;72081;48.870;11.074;2023-12-22T06:40:46;95837.25;;;2.62;96.03
82458;BME280;72081;48.870;11.074;2023-12-22T06:43:12;95849.03;;;2.60;95.83
82458;BME280;72081;48.870;11.074;2023-12-22T06:45:37;95852.69;;;2.59;95.86
82458;BME280;72081;48.870;11.074;2023-12-22T06:48:04;95848.44;;;2.58;96.51
82458;BME280;72081;48.870;11.074;2023-12-22T06:50:30;95855.31;;;2.59;95.72
82458;BME280;72081;48.870;11.074;2023-12-22T06:52:55;95845.97;;;2.63;95.68
82458;BME280;72081;48.870;11.074;2023-12-22T06:55:20;95847.78;;;2.62;95.98
82458;BME280;72081;48.870;11.074;2023-12-22T06:57:45;95853.88;;;2.63;95.49
82458;BME280;72081;48.870;11.074;2023-12-22T07:00:11;95862.34;;;2.65;95.14
82458;BME280;72081;48.870;11.074;2023-12-22T07:02:36;95861.91;;;2.68;95.34
82458;BME280;72081;48.870;11.074;2023-12-22T07:07:36;95877.72;;;2.68;95.08
82458;BME280;72081;48.870;11.074;2023-12-22T07:10:02;95883.41;;;2.71;94.48
82458;BME280;72081;48.870;11.074;2023-12-22T07:12:27;95905.28;;;2.72;95.04
82458;BME280;72081;48.870;11.074;2023-12-22T07:14:53;95920.63;;;2.75;94.72
82458;BME280;72081;48.870;11.074;2023-12-22T07:17:19;95906.88;;;2.73;94.67
82458;BME280;72081;48.870;11.074;2023-12-22T07:19:44;95925.53;;;2.71;94.33
82458;BME280;72081;48.870;11.074;2023-12-22T07:22:09;95923.13;;;2.70;94.71
82458;BME280;72081;48.870;11.074;2023-12-22T07:24:34;95933.25;;;2.66;95.64
82458;BME280;72081;48.870;11.074;2023-12-22T07:27:00;95923.94;;;2.64;95.15
82458;BME280;72081;48.870;11.074;2023-12-22T07:29:25;95931.25;;;2.62;95.19
82458;BME280;72081;48.870;11.074;2023-12-22T07:31:50;95939.16;;;2.62;94.76
82458;BME280;72081;48.870;11.074;2023-12-22T07:34:16;95930.00;;;2.64;94.84
82458;BME280;72081;48.870;11.074;2023-12-22T07:36:42;95933.44;;;2.65;95.23
82458;BME280;72081;48.870;11.074;2023-12-22T07:39:07;95945.00;;;2.70;95.04
82458;BME280;72081;48.870;11.074;2023-12-22T07:41:34;95947.34;;;2.79;95.28
82458;BME280;72081;48.870;11.074;2023-12-22T07:43:59;95935.38;;;2.83;95.14
82458;BME280;72081;48.870;11.074;2023-12-22T07:46:24;95935.16;;;2.84;95.64
82458;BME280;72081;48.870;11.074;2023-12-22T07:48:50;95950.38;;;2.82;95.48
82458;BME280;72081;48.870;11.074;2023-12-22T07:51:15;95956.66;;;2.81;95.31
82458;BME280;72081;48.870;11.074;2023-12-22T07:53:41;95948.59;;;2.76;95.23
82458;BME280;72081;48.870;11.074;2023-12-22T07:56:06;95956.94;;;2.73;95.82
82458;BME280;72081;48.870;11.074;2023-12-22T07:58:32;95955.09;;;2.73;95.80
82458;BME280;72081;48.870;11.074;2023-12-22T08:00:58;95957.72;;;2.73;96.32
82458;BME280;72081;48.870;11.074;2023-12-22T08:03:24;95955.25;;;2.79;95.26
82458;BME280;72081;48.870;11.074;2023-12-22T08:05:49;95961.94;;;2.81;95.78
82458;BME280;72081;48.870;11.074;2023-12-22T08:08:14;95954.25;;;2.80;95.67
82458;BME280;72081;48.870;11.074;2023-12-22T08:10:40;95976.53;;;2.77;95.43
82458;BME280;72081;48.870;11.074;2023-12-22T08:13:06;95979.19;;;2.77;95.93
82458;BME280;72081;48.870;11.074;2023-12-22T08:15:31;95998.63;;;2.76;95.97
82458;BME280;72081;48.870;11.074;2023-12-22T08:17:57;95991.53;;;2.77;96.19
82458;BME280;72081;48.870;11.074;2023-12-22T08:20:22;95993.16;;;2.78;96.85
82458;BME280;72081;48.870;11.074;2023-12-22T08:22:48;95981.81;;;2.77;96.53
82458;BME280;72081;48.870;11.074;2023-12-22T08:25:15;95988.28;;;2.81;96.54
82458;BME280;72081;48.870;11.074;2023-12-22T08:27:42;95977.72;;;2.81;97.09
82458;BME280;72081;48.870;11.074;2023-12-22T08:30:09;95988.28;;;2.81;97.24
82458;BME280;72081;48.870;11.074;2023-12-22T08:32:34;95977.72;;;2.81;97.53
82458;BME280;72081;48.870;11.074;2023-12-22T08:35:00;95996.75;;;2.83;97.63
82458;BME280;72081;48.870;11.074;2023-12-22T08:37:25;95993.91;;;2.85;97.58
82458;BME280;72081;48.870;11.074;2023-12-22T08:39:50;95996.75;;;2.83;97.56
82458;BME280;72081;48.870;11.074;2023-12-22T08:42:16;96012.56;;;2.83;96.51
82458;BME280;72081;48.870;11.074;2023-12-22T08:44:42;96014.41;;;2.83;96.98
82458;BME280;72081;48.870;11.074;2023-12-22T08:47:07;96017.63;;;2.85;97.03
82458;BME280;72081;48.870;11.074;2023-12-22T08:49:32;96014.97;;;2.91;96.70
82458;BME280;72081;48.870;11.074;2023-12-22T08:51:57;96012.50;;;2.96;95.77
82458;BME280;72081;48.870;11.074;2023-12-22T08:54:23;96015.31;;;3.01;95.08
82458;BME280;72081;48.870;11.074;2023-12-22T08:56:48;96004.09;;;3.13;94.60
82458;BME280;72081;48.870;11.074;2023-12-22T08:59:13;95999.94;;;3.23;94.01
82458;BME280;72081;48.870;11.074;2023-12-22T09:01:38;95995.03;;;3.33;93.70
82458;BME280;72081;48.870;11.074;2023-12-22T09:04:06;95995.91;;;3.46;92.50
82458;BME280;72081;48.870;11.074;2023-12-22T09:06:31;95981.75;;;3.65;89.93
82458;BME280;72081;48.870;11.074;2023-12-22T09:08:56;95989.44;;;3.91;89.48
82458;BME280;72081;48.870;11.074;2023-12-22T09:11:22;95982.19;;;4.23;89.45
82458;BME280;72081;48.870;11.074;2023-12-22T09:13:47;95978.59;;;4.36;87.64
82458;BME280;72081;48.870;11.074;2023-12-22T09:17:26;95988.88;;;4.44;88.67
82458;BME280;72081;48.870;11.074;2023-12-22T09:19:52;95983.97;;;4.30;89.71
82458;BME280;72081;48.870;11.074;2023-12-22T09:22:18;95970.91;;;4.16;90.46
82458;BME280;72081;48.870;11.074;2023-12-22T09:24:43;95980.28;;;4.12;91.22
82458;BME280;72081;48.870;11.074;2023-12-22T09:27:08;95972.16;;;4.14;90.74
82458;BME280;72081;48.870;11.074;2023-12-22T09:29:34;95984.75;;;4.12;91.84
82458;BME280;72081;48.870;11.074;2023-12-22T09:32:01;95987.63;;;4.10;90.87
82458;BME280;72081;48.870;11.074;2023-12-22T09:34:26;95984.53;;;4.13;91.65
82458;BME280;72081;48.870;11.074;2023-12-22T09:36:55;95996.84;;;4.19;91.36
82458;BME280;72081;48.870;11.074;2023-12-22T09:39:20;95981.19;;;4.24;91.44
82458;BME280;72081;48.870;11.074;2023-12-22T09:41:48;95980.88;;;4.33;90.89
82458;BME280;72081;48.870;11.074;2023-12-22T09:44:20;95976.53;;;4.38;91.05
82458;BME280;72081;48.870;11.074;2023-12-22T09:46:48;95968.63;;;4.38;91.69
82458;BME280;72081;48.870;11.074;2023-12-22T09:49:17;95969.88;;;4.36;91.49
82458;BME280;72081;48.870;11.074;2023-12-22T09:51:44;95975.38;;;4.34;90.23
82458;BME280;72081;48.870;11.074;2023-12-22T09:54:09;95973.97;;;4.32;92.00
82458;BME280;72081;48.870;11.074;2023-12-22T09:56:36;95969.59;;;4.25;92.19
82458;BME280;72081;48.870;11.074;2023-12-22T09:59:09;95958.13;;;4.32;91.62
82458;BME280;72081;48.870;11.074;2023-12-22T10:01:36;95950.66;;;4.29;92.28
82458;BME280;72081;48.870;11.074;2023-12-22T10:04:02;95950.22;;;4.32;91.94
82458;BME280;72081;48.870;11.074;2023-12-22T10:06:28;95961.13;;;4.35;92.94
82458;BME280;72081;48.870;11.074;2023-12-22T10:08:54;95962.88;;;4.41;92.06
82458;BME280;72081;48.870;11.074;2023-12-22T10:11:20;95950.88;;;4.45;91.76
82458;BME280;72081;48.870;11.074;2023-12-22T10:13:46;95959.06;;;4.55;90.46
82458;BME280;72081;48.870;11.074;2023-12-22T10:16:13;95948.13;;;4.52;92.20
82458;BME280;72081;48.870;11.074;2023-12-22T10:18:39;95953.31;;;4.58;92.16
82458;BME280;72081;48.870;11.074;2023-12-22T10:21:05;95956.94;;;4.76;91.28
82458;BME280;72081;48.870;11.074;2023-12-22T10:23:30;95957.06;;;4.81;91.98
82458;BME280;72081;48.870;11.074;2023-12-22T10:25:57;95956.66;;;4.84;91.84
82458;BME280;72081;48.870;11.074;2023-12-22T10:28:23;95939.88;;;4.90;91.07
82458;BME280;72081;48.870;11.074;2023-12-22T10:30:49;95940.22;;;4.94;91.16
82458;BME280;72081;48.870;11.074;2023-12-22T10:33:15;95936.44;;;4.90;91.14
82458;BME280;72081;48.870;11.074;2023-12-22T10:35:41;95947.47;;;4.86;91.31
82458;BME280;72081;48.870;11.074;2023-12-22T10:38:07;95955.69;;;4.78;91.78
82458;BME280;72081;48.870;11.074;2023-12-22T10:40:32;95944.88;;;4.68;89.99
82458;BME280;72081;48.870;11.074;2023-12-22T10:42:58;95971.09;;;4.51;89.06
82458;BME280;72081;48.870;11.074;2023-12-22T10:45:24;95956.66;;;4.36;90.49
82458;BME280;72081;48.870;11.074;2023-12-22T10:47:49;95966.78;;;4.20;92.58
82458;BME280;72081;48.870;11.074;2023-12-22T10:50:19;95969.50;;;4.14;93.29
82458;BME280;72081;48.870;11.074;2023-12-22T10:52:51;95955.94;;;4.10;92.97
82458;BME280;72081;48.870;11.074;2023-12-22T10:55:16;95958.38;;;4.12;93.92
82458;BME280;72081;48.870;11.074;2023-12-22T10:57:45;95934.84;;;4.10;93.77
82458;BME280;72081;48.870;11.074;2023-12-22T11:00:11;95946.19;;;4.11;94.07
82458;BME280;72081;48.870;11.074;2023-12-22T11:02:42;95946.19;;;4.11;93.69
82458;BME280;72081;48.870;11.074;2023-12-22T11:05:10;95938.72;;;4.08;93.69
82458;BME280;72081;48.870;11.074;2023-12-22T11:07:37;95922.31;;;4.06;93.96
82458;BME280;72081;48.870;11.074;2023-12-22T11:10:05;95922.72;;;4.03;93.89
82458;BME280;72081;48.870;11.074;2023-12-22T11:12:41;95920.66;;;4.05;94.88
82458;BME280;72081;48.870;11.074;2023-12-22T11:15:10;95930.41;;;4.04;95.52
82458;BME280;72081;48.870;11.074;2023-12-22T11:17:36;95908.31;;;4.05;95.69
82458;BME280;72081;48.870;11.074;2023-12-22T11:20:06;95913.72;;;4.10;95.42
82458;BME280;72081;48.870;11.074;2023-12-22T11:22:35;95912.47;;;4.13;95.70
82458;BME280;72081;48.870;11.074;2023-12-22T11:25:02;95909.16;;;4.17;96.50
82458;BME280;72081;48.870;11.074;2023-12-22T11:27:28;95899.34;;;4.24;96.30
82458;BME280;72081;48.870;11.074;2023-12-22T11:29:54;95907.97;;;4.32;96.01
82458;BME280;72081;48.870;11.074;2023-12-22T11:32:20;95913.25;;;4.32;96.56
82458;BME280;72081;48.870;11.074;2023-12-22T11:34:47;95898.44;;;4.31;96.83
82458;BME280;72081;48.870;11.074;2023-12-22T11:37:15;95897.41;;;4.32;97.15
82458;BME280;72081;48.870;11.074;2023-12-22T11:39:43;95880.66;;;4.38;95.75
82458;BME280;72081;48.870;11.074;2023-12-22T11:42:17;95864.00;;;4.37;96.31
82458;BME280;72081;48.870;11.074;2023-12-22T11:44:43;95875.38;;;4.38;96.96
82458;BME280;72081;48.870;11.074;2023-12-22T11:47:09;95869.88;;;4.39;96.61
82458;BME280;72081;48.870;11.074;2023-12-22T11:49:36;95870.91;;;4.38;97.31
82458;BME280;72081;48.870;11.074;2023-12-22T11:52:16;95878.25;;;4.36;97.34
82458;BME280;72081;48.870;11.074;2023-12-22T11:54:52;95859.75;;;4.36;97.64
82458;BME280;72081;48.870;11.074;2023-12-22T11:59:57;95867.72;;;4.48;97.20
82458;BME280;72081;48.870;11.074;2023-12-22T12:02:23;95876.13;;;4.56;96.77
82458;BME280;72081;48.870;11.074;2023-12-22T12:06:34;95870.63;;;4.58;96.23
82458;BME280;72081;48.870;11.074;2023-12-22T12:09:06;95866.72;;;4.61;96.12
82458;BME280;72081;48.870;11.074;2023-12-22T12:14:23;95837.47;;;4.74;94.69
82458;BME280;72081;48.870;11.074;2023-12-22T12:17:20;95867.78;;;4.71;95.25
82458;BME280;72081;48.870;11.074;2023-12-22T12:19:47;95868.38;;;4.73;95.31
82458;BME280;72081;48.870;11.074;2023-12-22T12:22:12;95858.94;;;4.77;95.22
82458;BME280;72081;48.870;11.074;2023-12-22T12:24:41;95858.16;;;4.77;94.66
82458;BME280;72081;48.870;11.074;2023-12-22T12:27:07;95842.06;;;4.78;94.73
82458;BME280;72081;48.870;11.074;2023-12-22T12:29:33;95848.16;;;4.79;95.07
82458;BME280;72081;48.870;11.074;2023-12-22T12:32:05;95842.88;;;4.79;95.24
82458;BME280;72081;48.870;11.074;2023-12-22T12:34:31;95841.50;;;4.76;95.08
82458;BME280;72081;48.870;11.074;2023-12-22T12:36:56;95839.88;;;4.75;95.61
82458;BME280;72081;48.870;11.074;2023-12-22T12:39:22;95833.22;;;4.73;95.72
82458;BME280;72081;48.870;11.074;2023-12-22T12:41:53;95820.81;;;4.73;96.23
82458;BME280;72081;48.870;11.074;2023-12-22T12:44:19;95818.50;;;4.77;96.30
82458;BME280;72081;48.870;11.074;2023-12-22T12:46:45;95834.38;;;4.77;96.28
82458;BME280;72081;48.870;11.074;2023-12-22T12:49:11;95812.41;;;4.76;96.62
82458;BME280;72081;48.870;11.074;2023-12-22T12:51:42;95805.53;;;4.75;96.73
82458;BME280;72081;48.870;11.074;2023-12-22T12:54:08;95812.41;;;4.76;97.15
82458;BME280;72081;48.870;11.074;2023-12-22T12:56:41;95788.88;;;4.75;97.74
82458;BME280;72081;48.870;11.074;2023-12-22T12:59:14;95783.94;;;4.78;97.07
82458;BME280;72081;48.870;11.074;2023-12-22T13:01:47;95792.09;;;4.77;97.12
82458;BME280;72081;48.870;11.074;2023-12-22T13:04:13;95794.25;;;4.80;97.36
82458;BME280;72081;48.870;11.074;2023-12-22T13:06:48;95793.13;;;4.76;98.32
82458;BME280;72081;48.870;11.074;2023-12-22T13:09:14;95798.16;;;4.77;97.93